createdAt,value
2022-12-05T00:01:48.528Z,63.27
2022-12-05T00:04:51.332Z,62.32
2022-12-05T00:07:54.006Z,61.94
2022-12-05T00:10:56.779Z,62.61
2022-12-05T00:14:00.881Z,62.62
2022-12-05T00:17:03.685Z,63.67
2022-12-05T00:20:08.244Z,62.83
2022-12-05T00:23:10.922Z,62.44
2022-12-05T00:26:14.290Z,60.82
2022-12-05T00:29:17.228Z,59.01
2022-12-05T00:32:19.964Z,62.43
2022-12-05T00:35:22.772Z,66.87
2022-12-05T00:38:25.530Z,67.39
2022-12-05T00:41:29.588Z,68.69
2022-12-05T00:44:32.327Z,70.39
2022-12-05T00:47:36.402Z,71.10
2022-12-05T00:50:39.166Z,71.87
2022-12-05T00:53:42.292Z,74.16
2022-12-05T00:56:46.030Z,74.43
2022-12-05T00:59:48.738Z,74.04
2022-12-05T01:02:51.425Z,69.44
2022-12-05T01:05:54.256Z,67.97
2022-12-05T01:08:57.813Z,69.65
2022-12-05T01:12:00.617Z,65.27
2022-12-05T01:15:04.376Z,64.92
2022-12-05T01:18:07.038Z,63.16
2022-12-05T01:21:10.826Z,61.18
2022-12-05T01:24:14.732Z,61.44
2022-12-05T01:27:17.477Z,62.08
2022-12-05T01:30:20.398Z,60.56
2022-12-05T01:33:23.046Z,58.19
2022-12-05T01:36:27.159Z,63.13
2022-12-05T01:39:29.787Z,66.96
2022-12-05T01:42:32.540Z,68.85
2022-12-05T01:45:39.225Z,66.24
2022-12-05T01:48:42.644Z,64.09
2022-12-05T01:51:49.063Z,62.26
2022-12-05T01:54:56.671Z,62.43
2022-12-05T01:58:00.958Z,62.19
2022-12-05T02:01:04.969Z,62.83
2022-12-05T02:04:08.807Z,63.00
2022-12-05T02:07:11.646Z,63.81
2022-12-05T02:10:15.077Z,64.29
2022-12-05T02:13:27.077Z,64.14
2022-12-05T02:16:39.183Z,64.76
2022-12-05T02:20:08.145Z,63.50
2022-12-05T02:23:16.974Z,63.23
2022-12-05T02:27:00.739Z,62.62
2022-12-05T02:30:26.925Z,63.18
2022-12-05T02:33:39.465Z,64.40
2022-12-05T02:37:04.049Z,63.78
2022-12-05T02:40:19.888Z,62.80
2022-12-05T02:43:31.209Z,61.61
2022-12-05T02:46:39.040Z,60.29
2022-12-05T02:49:43.250Z,60.30
2022-12-05T02:52:48.933Z,59.73
2022-12-05T02:55:52.529Z,61.65
2022-12-05T02:58:56.457Z,62.99
2022-12-05T03:01:59.266Z,64.27
2022-12-05T03:05:11.510Z,63.64
2022-12-05T03:08:20.775Z,63.69
2022-12-05T03:11:24.229Z,64.49
2022-12-05T03:14:33.467Z,65.49
2022-12-05T03:18:00.671Z,66.58
2022-12-05T03:21:43.904Z,67.36
2022-12-05T03:24:46.755Z,67.78
2022-12-05T03:28:15.591Z,68.70
2022-12-05T03:31:29.472Z,68.69
2022-12-05T03:34:44.541Z,67.41
2022-12-05T03:38:13.366Z,68.83
2022-12-05T03:42:02.277Z,69.18
2022-12-05T03:45:20.554Z,67.80
2022-12-05T03:48:46.846Z,66.61
2022-12-05T03:52:08.145Z,66.43
2022-12-05T03:55:14.144Z,66.50
2022-12-05T03:58:29.358Z,67.46
2022-12-05T04:01:35.477Z,67.82
2022-12-05T04:04:45.035Z,67.75
2022-12-05T04:07:54.561Z,67.75
2022-12-05T04:11:13.688Z,67.05
2022-12-05T04:14:25.796Z,66.61
2022-12-05T04:17:53.800Z,67.90
2022-12-05T04:21:17.779Z,67.22
2022-12-05T04:24:44.995Z,66.60
2022-12-05T04:27:54.291Z,66.02
2022-12-05T04:31:12.562Z,65.82
2022-12-05T04:34:16.239Z,64.34
2022-12-05T04:37:23.754Z,63.93
2022-12-05T04:40:42.013Z,64.58
2022-12-05T04:43:47.749Z,63.79
2022-12-05T04:46:54.401Z,63.85
2022-12-05T04:49:58.167Z,64.40
2022-12-05T04:53:03.232Z,66.36
2022-12-05T04:56:06.535Z,66.67
2022-12-05T04:59:09.932Z,68.49
2022-12-05T05:02:17.691Z,68.57
2022-12-05T05:05:21.872Z,68.27
2022-12-05T05:08:30.177Z,68.85
2022-12-05T05:11:35.075Z,67.93
2022-12-05T05:14:37.883Z,67.70
2022-12-05T05:17:40.703Z,67.19
2022-12-05T05:20:43.487Z,67.46
2022-12-05T05:23:46.544Z,67.30
2022-12-05T05:26:55.497Z,67.52
2022-12-05T05:30:00.194Z,67.94
2022-12-05T05:33:03.257Z,68.02
2022-12-05T05:36:08.515Z,67.91
2022-12-05T05:39:14.122Z,67.22
2022-12-05T05:42:16.993Z,66.51
2022-12-05T05:45:19.835Z,66.17
2022-12-05T05:48:22.637Z,66.58
2022-12-05T05:51:29.566Z,69.70
2022-12-05T05:54:32.432Z,70.98
2022-12-05T05:57:36.377Z,65.44
2022-12-05T06:00:39.692Z,64.66
2022-12-05T06:03:43.047Z,65.31
2022-12-05T06:06:45.898Z,65.30
2022-12-05T06:09:48.750Z,64.49
2022-12-05T06:12:51.594Z,64.49
2022-12-05T06:15:54.337Z,64.34
2022-12-05T06:18:58.348Z,64.25
2022-12-05T06:22:01.149Z,63.94
2022-12-05T06:25:04.275Z,63.84
2022-12-05T06:28:07.059Z,62.94
2022-12-05T06:31:20.256Z,62.05
2022-12-05T06:34:23.091Z,61.57
2022-12-05T06:37:25.930Z,61.73
2022-12-05T06:40:28.757Z,62.60
2022-12-05T06:43:31.513Z,63.45
2022-12-05T06:46:34.288Z,64.16
2022-12-05T06:49:38.203Z,64.78
2022-12-05T06:52:41.385Z,64.33
2022-12-05T06:55:44.436Z,62.60
2022-12-05T06:58:49.863Z,61.03
2022-12-05T07:01:53.275Z,60.02
2022-12-05T07:04:56.178Z,61.35
2022-12-05T07:07:58.948Z,62.83
2022-12-05T07:11:02.950Z,63.63
2022-12-05T07:14:14.722Z,64.01
2022-12-05T07:17:22.202Z,62.88
2022-12-05T07:20:27.887Z,61.92
2022-12-05T07:23:36.737Z,61.49
2022-12-05T07:26:39.535Z,61.92
2022-12-05T07:29:42.445Z,62.00
2022-12-05T07:32:45.288Z,62.41
2022-12-05T07:35:48.011Z,61.86
2022-12-05T07:38:56.826Z,63.27
2022-12-05T07:41:59.579Z,65.47
2022-12-05T07:45:02.493Z,66.28
2022-12-05T07:48:05.499Z,63.03
2022-12-05T07:51:09.733Z,61.64
2022-12-05T07:54:12.792Z,62.30
2022-12-05T07:57:15.552Z,61.55
2022-12-05T08:00:18.973Z,61.26
2022-12-05T08:03:21.888Z,60.31
2022-12-05T08:06:31.679Z,59.67
2022-12-05T08:09:34.662Z,58.07
2022-12-05T08:12:38.220Z,61.17
2022-12-05T08:15:40.965Z,65.40
2022-12-05T08:18:44.509Z,64.55
2022-12-05T08:21:47.729Z,63.79
2022-12-05T08:24:56.147Z,64.36
2022-12-05T08:27:59.165Z,66.12
2022-12-05T08:31:08.103Z,63.98
2022-12-05T08:34:13.183Z,56.69
2022-12-05T08:37:15.934Z,55.31
2022-12-05T08:40:18.828Z,59.69
2022-12-05T08:43:21.668Z,66.55
2022-12-05T08:46:24.556Z,65.65
2022-12-05T08:49:28.269Z,57.42
2022-12-05T08:52:31.050Z,56.97
2022-12-05T08:55:37.523Z,58.79
2022-12-05T08:58:41.141Z,65.75
2022-12-05T09:01:43.976Z,65.61
2022-12-05T09:04:54.076Z,61.81
2022-12-05T09:07:59.381Z,61.50
2022-12-05T09:11:08.187Z,58.64
2022-12-05T09:14:10.989Z,58.62
2022-12-05T09:17:13.711Z,61.58
2022-12-05T09:20:16.464Z,68.12
2022-12-05T09:23:19.204Z,66.12
2022-12-05T09:26:25.012Z,65.28
2022-12-05T09:29:29.575Z,65.85
2022-12-05T09:32:32.404Z,65.36
2022-12-05T09:35:40.047Z,62.62
2022-12-05T09:38:43.046Z,55.49
2022-12-05T09:42:10.536Z,55.81
2022-12-05T09:45:24.108Z,57.40
2022-12-05T09:48:27.389Z,59.53
2022-12-05T09:51:31.287Z,68.13
2022-12-05T09:54:34.318Z,64.54
2022-12-05T09:57:42.967Z,61.23
2022-12-05T10:00:46.135Z,53.85
2022-12-05T10:04:10.993Z,56.03
2022-12-05T10:07:25.465Z,62.58
2022-12-05T10:11:02.292Z,64.26
2022-12-05T10:14:09.475Z,62.41
2022-12-05T10:17:29.091Z,60.84
2022-12-05T10:20:43.503Z,60.22
2022-12-05T10:23:59.082Z,60.42
2022-12-05T10:27:08.551Z,63.88
2022-12-05T10:30:21.351Z,62.84
2022-12-05T10:33:24.381Z,59.13
2022-12-05T10:36:27.154Z,57.05
2022-12-05T10:39:29.974Z,60.74
2022-12-05T10:42:36.180Z,63.48
2022-12-05T10:45:47.993Z,61.03
2022-12-05T10:48:50.715Z,57.91
2022-12-05T10:51:53.890Z,58.67
2022-12-05T10:55:02.795Z,62.13
2022-12-05T10:58:17.273Z,62.14
2022-12-05T11:01:20.710Z,58.11
2022-12-05T11:04:26.284Z,59.02
2022-12-05T11:07:30.793Z,61.03
2022-12-05T11:10:44.186Z,61.45
2022-12-05T11:13:59.387Z,58.19
2022-12-05T11:17:03.914Z,59.82
2022-12-05T11:20:26.988Z,62.91
2022-12-05T11:23:30.847Z,64.33
2022-12-05T11:26:37.235Z,64.41
2022-12-05T11:29:40.086Z,64.47
2022-12-05T11:32:42.933Z,63.13
2022-12-05T11:35:47.431Z,61.36
2022-12-05T11:38:51.100Z,60.86
2022-12-05T11:42:08.485Z,59.51
2022-12-05T11:45:39.147Z,62.74
2022-12-05T11:49:21.029Z,65.51
2022-12-05T11:53:04.750Z,65.40
2022-12-05T11:56:38.489Z,64.69
2022-12-05T12:00:09.271Z,64.71
2022-12-05T12:03:21.311Z,60.65
2022-12-05T12:06:46.193Z,58.15
2022-12-05T12:10:09.480Z,61.55
2022-12-05T12:13:12.757Z,62.63
2022-12-05T12:16:26.739Z,56.31
2022-12-05T12:19:43.370Z,60.07
2022-12-05T12:23:20.412Z,64.60
2022-12-05T12:26:33.568Z,60.01
2022-12-05T12:30:28.124Z,56.73
2022-12-05T12:33:46.598Z,62.88
2022-12-05T12:36:52.466Z,64.80
2022-12-05T12:40:14.117Z,56.67
2022-12-05T12:43:52.088Z,57.90
2022-12-05T12:47:04.384Z,63.43
2022-12-05T12:50:31.326Z,64.03
2022-12-05T12:53:56.182Z,58.60
2022-12-05T12:57:16.077Z,59.31
2022-12-05T13:00:37.317Z,63.79
2022-12-05T13:03:51.422Z,65.26
2022-12-05T13:06:58.002Z,62.46
2022-12-05T13:10:11.446Z,57.44
2022-12-05T13:13:34.502Z,57.91
2022-12-05T13:16:45.870Z,62.38
2022-12-05T13:19:54.149Z,66.33
2022-12-05T13:22:58.534Z,62.37
2022-12-05T13:26:10.881Z,60.92
2022-12-05T13:29:21.747Z,60.54
2022-12-05T13:32:26.691Z,60.97
2022-12-05T13:35:52.206Z,60.87
2022-12-05T13:39:25.726Z,61.92
2022-12-05T13:42:32.075Z,61.29
2022-12-05T13:45:34.902Z,57.83
2022-12-05T13:48:44.719Z,56.57
2022-12-05T13:51:47.736Z,64.01
2022-12-05T13:55:35.357Z,66.69
2022-12-05T13:58:52.157Z,64.03
2022-12-05T14:01:56.415Z,63.26
2022-12-05T14:04:59.539Z,62.52
2022-12-05T14:08:31.604Z,62.20
2022-12-05T14:11:34.460Z,62.53
2022-12-05T14:14:55.939Z,62.87
2022-12-05T14:18:15.514Z,63.18
2022-12-05T14:21:35.250Z,63.45
2022-12-05T14:25:19.910Z,61.57
2022-12-05T14:28:55.238Z,59.97
2022-12-05T14:32:22.901Z,57.78
2022-12-05T14:35:32.249Z,59.27
2022-12-05T14:38:38.054Z,60.12
2022-12-05T14:41:40.836Z,66.35
2022-12-05T14:44:48.906Z,65.72
2022-12-05T14:48:01.030Z,63.06
2022-12-05T14:51:32.718Z,62.88
2022-12-05T14:54:35.989Z,62.37
2022-12-05T14:57:47.998Z,62.02
2022-12-05T15:01:00.542Z,62.75
2022-12-05T15:04:12.735Z,62.12
2022-12-05T15:07:31.802Z,62.17
2022-12-05T15:10:43.241Z,62.25
2022-12-05T15:13:46.239Z,62.84
2022-12-05T15:16:52.427Z,63.76
2022-12-05T15:20:04.170Z,57.32
2022-12-05T15:23:42.087Z,55.03
2022-12-05T15:26:50.470Z,57.98
2022-12-05T15:29:54.887Z,59.98
2022-12-05T15:32:59.783Z,67.20
2022-12-05T15:36:04.231Z,64.42
2022-12-05T15:39:19.810Z,55.93
2022-12-05T15:42:29.952Z,56.34
2022-12-05T15:45:33.442Z,60.56
2022-12-05T15:48:36.386Z,64.71
2022-12-05T15:51:39.646Z,64.98
2022-12-05T15:54:43.342Z,63.73
2022-12-05T15:57:46.103Z,64.06
2022-12-05T16:00:55.325Z,60.96
2022-12-05T16:04:27.792Z,57.14
2022-12-05T16:07:35.231Z,59.37
2022-12-05T16:10:38.319Z,66.23
2022-12-05T16:13:51.302Z,63.26
2022-12-05T16:17:00.669Z,61.43
2022-12-05T16:20:18.901Z,60.01
2022-12-05T16:23:27.669Z,56.55
2022-12-05T16:26:31.945Z,57.88
2022-12-05T16:29:35.620Z,61.73
2022-12-05T16:32:42.295Z,68.79
2022-12-05T16:35:46.940Z,64.05
2022-12-05T16:38:49.959Z,60.80
2022-12-05T16:41:53.276Z,60.68
2022-12-05T16:45:01.993Z,60.67
2022-12-05T16:48:14.911Z,60.36
2022-12-05T16:51:26.089Z,60.22
2022-12-05T16:54:29.998Z,60.21
2022-12-05T16:57:32.875Z,60.81
2022-12-05T17:00:35.740Z,60.32
2022-12-05T17:03:38.586Z,59.97
2022-12-05T17:06:41.445Z,60.36
2022-12-05T17:09:44.278Z,60.33
2022-12-05T17:12:47.795Z,60.43
2022-12-05T17:15:51.360Z,59.97
2022-12-05T17:18:54.688Z,58.17
2022-12-05T17:21:57.516Z,58.86
2022-12-05T17:25:01.011Z,60.58
2022-12-05T17:28:04.187Z,66.20
2022-12-05T17:31:09.840Z,65.35
2022-12-05T17:34:18.593Z,61.70
2022-12-05T17:37:23.097Z,59.88
2022-12-05T17:40:25.893Z,57.16
2022-12-05T17:43:28.641Z,57.54
2022-12-05T17:46:32.155Z,60.01
2022-12-05T17:49:35.034Z,66.32
2022-12-05T17:52:37.806Z,65.46
2022-12-05T17:55:41.164Z,57.49
2022-12-05T17:58:44.270Z,54.63
2022-12-05T18:01:47.156Z,56.80
2022-12-05T18:04:49.975Z,59.12
2022-12-05T18:07:52.866Z,60.94
2022-12-05T18:10:56.671Z,67.72
2022-12-05T18:14:00.160Z,66.08
2022-12-05T18:17:04.609Z,59.33
2022-12-05T18:20:09.932Z,54.29
2022-12-05T18:23:12.778Z,55.88
2022-12-05T18:26:15.534Z,58.53
2022-12-05T18:29:18.414Z,60.13
2022-12-05T18:32:21.472Z,66.41
2022-12-05T18:35:40.562Z,65.60
2022-12-05T18:38:52.988Z,61.13
2022-12-05T18:41:55.935Z,55.27
2022-12-05T18:44:59.039Z,55.52
2022-12-05T18:48:23.425Z,58.51
2022-12-05T18:51:25.027Z,60.52
2022-12-05T18:54:27.823Z,66.64
2022-12-05T18:57:30.783Z,66.27
2022-12-05T19:00:33.594Z,62.65
2022-12-05T19:03:37.738Z,60.67
2022-12-05T19:06:43.334Z,57.54
2022-12-05T19:09:46.120Z,57.97
2022-12-05T19:12:48.906Z,60.38
2022-12-05T19:15:51.665Z,65.31
2022-12-05T19:18:56.695Z,66.51
2022-12-05T19:21:59.496Z,63.12
2022-12-05T19:25:03.409Z,59.28
2022-12-05T19:28:06.209Z,56.73
2022-12-05T19:31:16.471Z,58.62
2022-12-05T19:34:19.320Z,60.77
2022-12-05T19:37:22.325Z,67.01
2022-12-05T19:40:25.198Z,65.45
2022-12-05T19:43:30.052Z,58.51
2022-12-05T19:46:34.175Z,56.61
2022-12-05T19:49:36.909Z,58.82
2022-12-05T19:52:39.678Z,60.61
2022-12-05T19:55:42.423Z,67.01
2022-12-05T19:58:46.027Z,66.12
2022-12-05T20:01:48.984Z,63.87
2022-12-05T20:04:51.870Z,64.96
2022-12-05T20:07:54.693Z,63.43
2022-12-05T20:11:03.781Z,57.17
2022-12-05T20:14:07.492Z,57.74
2022-12-05T20:17:10.272Z,60.03
2022-12-05T20:20:13.174Z,67.31
2022-12-05T20:23:15.920Z,64.61
2022-12-05T20:26:27.396Z,57.96
2022-12-05T20:29:30.136Z,55.73
2022-12-05T20:32:34.307Z,57.65
2022-12-05T20:35:37.403Z,59.93
2022-12-05T20:38:41.168Z,68.63
2022-12-05T20:41:44.666Z,65.15
2022-12-05T20:44:47.570Z,61.88
2022-12-05T20:47:51.448Z,61.08
2022-12-05T20:50:54.702Z,60.81
2022-12-05T20:53:59.244Z,60.22
2022-12-05T20:57:03.209Z,56.69
2022-12-05T21:00:07.005Z,57.35
2022-12-05T21:03:17.004Z,58.03
2022-12-05T21:06:29.168Z,61.32
2022-12-05T21:09:32.080Z,68.56
2022-12-05T21:12:34.881Z,67.64
2022-12-05T21:15:37.747Z,63.01
2022-12-05T21:18:41.563Z,60.95
2022-12-05T21:21:44.747Z,56.56
2022-12-05T21:24:47.530Z,55.84
2022-12-05T21:27:50.260Z,58.02
2022-12-05T21:30:53.028Z,66.10
2022-12-05T21:33:58.587Z,68.44
2022-12-05T21:37:01.405Z,64.05
2022-12-05T21:40:08.705Z,61.12
2022-12-05T21:43:12.678Z,60.01
2022-12-05T21:46:15.491Z,57.84
2022-12-05T21:49:18.344Z,58.07
2022-12-05T21:52:21.754Z,60.99
2022-12-05T21:55:25.116Z,67.08
2022-12-05T21:58:27.975Z,67.09
2022-12-05T22:01:30.820Z,62.73
2022-12-05T22:04:33.614Z,60.28
2022-12-05T22:07:36.489Z,57.84
2022-12-05T22:10:39.238Z,58.79
2022-12-05T22:13:42.749Z,61.10
2022-12-05T22:16:45.566Z,66.18
2022-12-05T22:19:48.428Z,66.08
2022-12-05T22:22:51.236Z,63.15
2022-12-05T22:26:08.582Z,60.62
2022-12-05T22:29:11.294Z,59.05
2022-12-05T22:32:14.089Z,57.78
2022-12-05T22:35:16.899Z,59.58
2022-12-05T22:38:19.850Z,64.86
2022-12-05T22:41:25.727Z,65.98
2022-12-05T22:44:28.531Z,63.79
2022-12-05T22:47:31.311Z,62.64
2022-12-05T22:50:34.091Z,61.96
2022-12-05T22:53:37.780Z,61.81
2022-12-05T22:56:40.711Z,61.41
2022-12-05T22:59:43.505Z,61.46
2022-12-05T23:02:46.323Z,61.14
2022-12-05T23:05:49.286Z,61.03
2022-12-05T23:08:52.566Z,60.87
2022-12-05T23:11:55.391Z,60.96
2022-12-05T23:14:58.187Z,61.04
2022-12-05T23:18:00.914Z,61.08
2022-12-05T23:21:03.892Z,61.15
2022-12-05T23:24:09.784Z,60.67
2022-12-05T23:27:12.500Z,59.85
2022-12-05T23:30:15.359Z,59.71
2022-12-05T23:33:18.091Z,59.87
2022-12-05T23:36:21.024Z,59.99
2022-12-05T23:39:23.766Z,60.27
2022-12-05T23:42:26.562Z,59.77
2022-12-05T23:45:29.363Z,59.71
2022-12-05T23:48:32.633Z,57.53
2022-12-05T23:51:40.271Z,58.34
2022-12-05T23:54:43.872Z,60.67
2022-12-05T23:57:46.647Z,66.14
